createdAt,value
2023-03-14T00:00:22.727Z,347
2023-03-14T00:01:21.520Z,339
2023-03-14T00:02:20.814Z,349
2023-03-14T00:03:21.971Z,351
2023-03-14T00:04:21.205Z,341
2023-03-14T00:05:21.377Z,344
2023-03-14T00:06:21.794Z,341
2023-03-14T00:07:21.302Z,343
2023-03-14T00:08:21.931Z,349
2023-03-14T00:09:21.348Z,351
2023-03-14T00:10:21.635Z,357
2023-03-14T00:11:21.559Z,359
2023-03-14T00:13:21.662Z,350
2023-03-14T00:14:21.576Z,347
2023-03-14T00:18:21.878Z,351
2023-03-14T00:20:21.541Z,341
2023-03-14T00:21:21.654Z,347
2023-03-14T00:22:21.932Z,343
2023-03-14T00:23:21.580Z,350
2023-03-14T00:24:21.916Z,353
2023-03-14T00:25:21.888Z,350
2023-03-14T00:26:21.635Z,354
2023-03-14T00:27:22.191Z,351
2023-03-14T00:28:21.568Z,357
2023-03-14T00:29:21.646Z,358
2023-03-14T00:30:22.398Z,349
2023-03-14T00:31:21.463Z,345
2023-03-14T00:32:22.035Z,346
2023-03-14T00:33:19.548Z,346
2023-03-14T00:34:21.858Z,347
2023-03-14T00:35:22.129Z,351
2023-03-14T00:36:22.028Z,350
2023-03-14T00:37:21.122Z,346
2023-03-14T00:39:21.085Z,355
2023-03-14T00:40:21.665Z,358
2023-03-14T00:41:21.679Z,361
2023-03-14T00:42:21.997Z,356
2023-03-14T00:43:21.536Z,349
2023-03-14T00:44:21.532Z,350
2023-03-14T00:45:22.072Z,359
2023-03-14T00:46:21.903Z,358
2023-03-14T00:47:22.275Z,353
2023-03-14T00:48:21.830Z,352
2023-03-14T00:49:22.354Z,347
2023-03-14T00:50:21.972Z,342
2023-03-14T00:51:21.208Z,349
2023-03-14T00:52:21.135Z,353
2023-03-14T00:53:21.507Z,356
2023-03-14T00:54:21.824Z,353
2023-03-14T00:56:21.503Z,352
2023-03-14T00:57:21.921Z,345
2023-03-14T00:58:22.391Z,349
2023-03-14T00:59:21.785Z,361
2023-03-14T01:00:23.430Z,354
2023-03-14T01:01:25.300Z,357
2023-03-14T01:02:21.846Z,345
2023-03-14T01:03:21.709Z,337
2023-03-14T01:05:22.213Z,341
2023-03-14T01:06:22.174Z,353
2023-03-14T01:07:22.259Z,357
2023-03-14T01:08:21.570Z,363
2023-03-14T01:09:21.844Z,359
2023-03-14T01:10:22.343Z,349
2023-03-14T01:11:21.679Z,350
2023-03-14T01:12:22.289Z,341
2023-03-14T01:13:22.222Z,338
2023-03-14T01:14:21.642Z,345
2023-03-14T01:15:21.962Z,351
2023-03-14T01:16:21.562Z,353
2023-03-14T01:17:22.026Z,345
2023-03-14T01:18:21.899Z,346
2023-03-14T01:19:21.403Z,347
2023-03-14T01:20:21.178Z,350
2023-03-14T01:21:21.296Z,347
2023-03-14T01:22:21.034Z,355
2023-03-14T01:27:21.617Z,348
2023-03-14T01:29:21.356Z,351
2023-03-14T01:30:21.648Z,356
2023-03-14T01:31:21.899Z,359
2023-03-14T01:33:22.017Z,347
2023-03-14T01:34:21.448Z,355
2023-03-14T01:35:21.473Z,346
2023-03-14T01:36:21.537Z,349
2023-03-14T01:37:21.445Z,348
2023-03-14T01:38:21.794Z,342
2023-03-14T01:39:22.173Z,347
2023-03-14T01:40:21.430Z,348
2023-03-14T01:41:21.572Z,353
2023-03-14T01:42:21.473Z,343
2023-03-14T01:43:21.546Z,347
2023-03-14T01:44:21.813Z,351
2023-03-14T01:45:22.812Z,354
2023-03-14T01:46:21.539Z,352
2023-03-14T01:47:21.306Z,348
2023-03-14T01:48:21.185Z,351
2023-03-14T01:49:20.899Z,344
2023-03-14T01:50:21.187Z,350
2023-03-14T01:51:21.697Z,357
2023-03-14T01:52:21.720Z,358
2023-03-14T01:53:21.719Z,361
2023-03-14T01:54:21.866Z,351
2023-03-14T01:55:21.852Z,348
2023-03-14T01:56:21.726Z,345
2023-03-14T01:57:21.520Z,346
2023-03-14T01:58:21.399Z,344
2023-03-14T01:59:21.080Z,351
2023-03-14T02:00:23.474Z,363
2023-03-14T02:01:21.613Z,355
2023-03-14T02:02:22.060Z,348
2023-03-14T02:03:21.662Z,359
2023-03-14T02:04:22.251Z,357
2023-03-14T02:05:21.933Z,360
2023-03-14T02:06:21.306Z,355
2023-03-14T02:07:21.759Z,357
2023-03-14T02:08:21.582Z,351
2023-03-14T02:09:21.380Z,356
2023-03-14T02:10:22.044Z,348
2023-03-14T02:11:21.683Z,345
2023-03-14T02:12:21.516Z,343
2023-03-14T02:13:21.353Z,347
2023-03-14T02:15:21.350Z,355
2023-03-14T02:16:21.365Z,351
2023-03-14T02:17:21.997Z,360
2023-03-14T02:19:21.158Z,355
2023-03-14T02:20:21.659Z,361
2023-03-14T02:21:21.257Z,360
2023-03-14T02:22:21.147Z,358
2023-03-14T02:23:20.960Z,355
2023-03-14T02:24:21.357Z,351
2023-03-14T02:25:21.430Z,346
2023-03-14T02:26:21.920Z,354
2023-03-14T02:27:22.073Z,351
2023-03-14T02:28:20.471Z,352
2023-03-14T02:29:21.140Z,361
2023-03-14T02:30:21.548Z,356
2023-03-14T02:31:21.903Z,353
2023-03-14T02:32:39.922Z,362
2023-03-14T02:33:21.212Z,359
2023-03-14T02:34:21.031Z,360
2023-03-14T02:35:21.577Z,356
2023-03-14T02:36:21.190Z,365
2023-03-14T02:37:21.549Z,354
2023-03-14T02:38:21.878Z,355
2023-03-14T02:39:21.743Z,353
2023-03-14T02:40:22.016Z,339
2023-03-14T02:41:21.715Z,350
2023-03-14T02:42:21.231Z,354
2023-03-14T02:43:20.896Z,351
2023-03-14T02:44:20.676Z,355
2023-03-14T02:45:21.942Z,358
2023-03-14T02:46:20.822Z,362
2023-03-14T02:48:20.858Z,357
2023-03-14T02:49:21.026Z,358
2023-03-14T02:50:21.461Z,352
2023-03-14T02:51:22.236Z,354
2023-03-14T02:52:21.726Z,357
2023-03-14T02:53:21.494Z,365
2023-03-14T02:54:21.993Z,350
2023-03-14T02:55:21.042Z,349
2023-03-14T02:56:21.500Z,358
2023-03-14T02:57:21.534Z,353
2023-03-14T02:58:21.235Z,358
2023-03-14T02:59:21.397Z,351
2023-03-14T03:00:22.321Z,353
2023-03-14T03:01:21.755Z,356
2023-03-14T03:03:21.278Z,355
2023-03-14T03:05:21.640Z,353
2023-03-14T03:06:21.449Z,356
2023-03-14T03:07:21.719Z,352
2023-03-14T03:08:21.455Z,351
2023-03-14T03:09:21.699Z,356
2023-03-14T03:10:21.956Z,363
2023-03-14T03:11:21.879Z,362
2023-03-14T03:13:21.166Z,370
2023-03-14T03:14:21.024Z,360
2023-03-14T03:15:22.559Z,358
2023-03-14T03:17:20.898Z,350
2023-03-14T03:18:21.289Z,355
2023-03-14T03:19:21.335Z,349
2023-03-14T03:20:22.162Z,351
2023-03-14T03:21:21.344Z,344
2023-03-14T03:22:21.177Z,348
2023-03-14T03:23:20.744Z,355
2023-03-14T03:24:21.554Z,354
2023-03-14T03:25:21.366Z,342
2023-03-14T03:26:21.444Z,346
2023-03-14T03:27:21.738Z,361
2023-03-14T03:28:21.805Z,354
2023-03-14T03:29:21.797Z,352
2023-03-14T03:30:21.344Z,356
2023-03-14T03:31:21.599Z,360
2023-03-14T03:32:21.690Z,361
2023-03-14T03:33:21.246Z,349
2023-03-14T03:34:21.051Z,352
2023-03-14T03:35:21.528Z,350
2023-03-14T03:36:21.210Z,338
2023-03-14T03:37:21.712Z,337
2023-03-14T03:38:21.546Z,344
2023-03-14T03:39:21.165Z,349
2023-03-14T03:40:21.332Z,352
2023-03-14T03:41:21.150Z,351
2023-03-14T03:42:21.067Z,357
2023-03-14T03:43:20.992Z,351
2023-03-14T03:44:21.032Z,352
2023-03-14T03:45:21.095Z,358
2023-03-14T03:49:20.955Z,354
2023-03-14T03:50:21.180Z,346
2023-03-14T03:51:21.362Z,353
2023-03-14T03:52:21.438Z,359
2023-03-14T03:53:32.857Z,349
2023-03-14T03:54:21.734Z,347
2023-03-14T03:55:21.478Z,366
2023-03-14T03:56:21.097Z,363
2023-03-14T03:57:21.202Z,367
2023-03-14T03:58:20.829Z,361
2023-03-14T03:59:21.772Z,349
2023-03-14T04:00:22.721Z,356
2023-03-14T04:01:21.524Z,362
2023-03-14T04:02:21.643Z,353
2023-03-14T04:03:21.839Z,343
2023-03-14T04:04:21.433Z,344
2023-03-14T04:05:21.880Z,349
2023-03-14T04:06:21.380Z,362
2023-03-14T04:07:21.304Z,364
2023-03-14T04:08:21.784Z,350
2023-03-14T04:09:21.789Z,347
2023-03-14T04:10:21.913Z,350
2023-03-14T04:11:21.583Z,351
2023-03-14T04:12:21.741Z,356
2023-03-14T04:13:21.363Z,351
2023-03-14T04:15:21.293Z,350
2023-03-14T04:16:20.993Z,352
2023-03-14T04:17:21.734Z,350
2023-03-14T04:19:21.689Z,341
2023-03-14T04:20:22.017Z,358
2023-03-14T04:21:21.268Z,362
2023-03-14T04:22:21.777Z,360
2023-03-14T04:23:21.801Z,365
2023-03-14T04:24:21.380Z,361
2023-03-14T04:25:22.272Z,356
2023-03-14T04:26:21.738Z,360
2023-03-14T04:28:21.560Z,361
2023-03-14T04:29:22.108Z,350
2023-03-14T04:30:21.411Z,343
2023-03-14T04:31:21.710Z,334
2023-03-14T04:33:29.538Z,354
2023-03-14T04:34:21.870Z,353
2023-03-14T04:35:21.925Z,358
2023-03-14T04:36:20.945Z,355
2023-03-14T04:38:21.266Z,359
2023-03-14T04:39:21.785Z,347
2023-03-14T04:40:21.917Z,343
2023-03-14T04:41:21.225Z,347
2023-03-14T04:42:21.839Z,354
2023-03-14T04:43:21.095Z,353
2023-03-14T04:44:21.173Z,355
2023-03-14T04:45:21.484Z,352
2023-03-14T04:46:21.611Z,345
2023-03-14T04:47:21.804Z,342
2023-03-14T04:48:21.782Z,344
2023-03-14T04:49:21.754Z,353
2023-03-14T04:50:21.855Z,358
2023-03-14T04:51:21.024Z,356
2023-03-14T04:52:21.578Z,354
2023-03-14T04:53:21.715Z,352
2023-03-14T04:54:21.734Z,360
2023-03-14T04:55:24.055Z,361
2023-03-14T04:56:21.706Z,347
2023-03-14T04:57:21.513Z,349
2023-03-14T04:58:21.760Z,347
2023-03-14T04:59:21.720Z,348
2023-03-14T05:00:23.009Z,355
2023-03-14T05:01:41.307Z,357
2023-03-14T05:02:21.630Z,360
2023-03-14T05:03:22.376Z,359
2023-03-14T05:04:21.163Z,368
2023-03-14T05:05:21.978Z,365
2023-03-14T05:06:21.172Z,367
2023-03-14T05:07:21.228Z,361
2023-03-14T05:08:21.586Z,356
2023-03-14T05:09:21.674Z,352
2023-03-14T05:10:21.761Z,360
2023-03-14T05:12:22.370Z,352
2023-03-14T05:13:21.139Z,350
2023-03-14T05:15:22.262Z,354
2023-03-14T05:16:21.716Z,357
2023-03-14T05:17:21.205Z,355
2023-03-14T05:18:21.327Z,360
2023-03-14T05:19:21.801Z,359
2023-03-14T05:20:21.324Z,361
2023-03-14T05:21:21.649Z,363
2023-03-14T05:22:21.007Z,355
2023-03-14T05:24:22.840Z,344
2023-03-14T05:25:21.870Z,357
2023-03-14T05:26:21.620Z,351
2023-03-14T05:28:22.128Z,349
2023-03-14T05:29:21.427Z,352
2023-03-14T05:30:21.202Z,350
2023-03-14T05:31:21.732Z,351
2023-03-14T05:32:20.813Z,346
2023-03-14T05:33:21.044Z,356
2023-03-14T05:34:21.223Z,357
2023-03-14T05:35:21.812Z,351
2023-03-14T05:36:21.188Z,346
2023-03-14T05:37:21.432Z,350
2023-03-14T05:38:21.544Z,356
2023-03-14T05:39:21.711Z,354
2023-03-14T05:40:21.309Z,347
2023-03-14T05:41:21.404Z,343
2023-03-14T05:42:21.950Z,353
2023-03-14T05:43:21.133Z,360
2023-03-14T05:44:21.828Z,357
2023-03-14T05:45:22.094Z,352
2023-03-14T05:46:22.330Z,353
2023-03-14T05:47:21.543Z,352
2023-03-14T05:48:21.631Z,350
2023-03-14T05:49:21.294Z,353
2023-03-14T05:51:21.659Z,356
2023-03-14T05:52:21.735Z,360
2023-03-14T05:54:21.845Z,362
2023-03-14T05:55:21.628Z,370
2023-03-14T05:56:22.183Z,363
2023-03-14T05:58:21.775Z,355
2023-03-14T06:00:22.922Z,357
2023-03-14T06:02:22.499Z,350
2023-03-14T06:03:21.857Z,349
2023-03-14T06:04:21.561Z,351
2023-03-14T06:05:21.799Z,367
2023-03-14T06:06:21.925Z,369
2023-03-14T06:07:21.830Z,357
2023-03-14T06:08:21.724Z,367
2023-03-14T06:09:21.275Z,357
2023-03-14T06:10:22.477Z,354
2023-03-14T06:11:22.878Z,358
2023-03-14T06:12:22.102Z,359
2023-03-14T06:13:21.912Z,357
2023-03-14T06:15:22.114Z,353
2023-03-14T06:17:21.154Z,346
2023-03-14T06:18:22.106Z,343
2023-03-14T06:19:21.805Z,351
2023-03-14T06:21:21.408Z,350
2023-03-14T06:22:22.426Z,355
2023-03-14T06:23:21.775Z,353
2023-03-14T06:24:22.176Z,348
2023-03-14T06:26:21.773Z,356
2023-03-14T06:27:21.131Z,356
2023-03-14T06:28:21.716Z,347
2023-03-14T06:29:21.449Z,344
2023-03-14T06:30:22.172Z,348
2023-03-14T06:31:21.425Z,356
2023-03-14T06:32:21.677Z,368
2023-03-14T06:33:21.799Z,367
2023-03-14T06:34:22.048Z,360
2023-03-14T06:35:22.049Z,358
2023-03-14T06:36:22.717Z,357
2023-03-14T06:37:21.540Z,366
2023-03-14T06:38:21.392Z,372
2023-03-14T06:39:22.448Z,368
2023-03-14T06:40:22.377Z,364
2023-03-14T06:41:22.246Z,367
2023-03-14T06:42:22.401Z,366
2023-03-14T06:44:22.286Z,357
2023-03-14T06:45:22.242Z,364
2023-03-14T06:46:21.720Z,360
2023-03-14T06:47:22.042Z,352
2023-03-14T06:48:22.457Z,342
2023-03-14T06:49:22.261Z,350
2023-03-14T06:50:22.986Z,352
2023-03-14T06:51:21.881Z,359
2023-03-14T06:52:21.334Z,363
2023-03-14T06:53:21.762Z,369
2023-03-14T06:54:21.127Z,361
2023-03-14T06:55:23.086Z,359
2023-03-14T06:56:22.382Z,364
2023-03-14T06:57:22.261Z,359
2023-03-14T06:58:29.907Z,357
2023-03-14T06:59:21.780Z,354
2023-03-14T07:00:22.324Z,350
2023-03-14T07:01:22.577Z,354
2023-03-14T07:02:29.603Z,350
2023-03-14T07:03:22.292Z,343
2023-03-14T07:04:21.825Z,346
2023-03-14T07:05:22.374Z,357
2023-03-14T07:06:22.596Z,356
2023-03-14T07:07:22.014Z,357
2023-03-14T07:08:21.725Z,354
2023-03-14T07:09:22.141Z,347
2023-03-14T07:10:22.428Z,348
2023-03-14T07:12:21.796Z,360
2023-03-14T07:13:21.940Z,342
2023-03-14T07:15:22.444Z,351
2023-03-14T07:16:22.652Z,355
2023-03-14T07:17:22.715Z,346
2023-03-14T07:18:22.611Z,361
2023-03-14T07:19:22.159Z,362
2023-03-14T07:20:22.543Z,354
2023-03-14T07:21:22.671Z,350
2023-03-14T07:23:22.206Z,356
2023-03-14T07:24:23.230Z,357
2023-03-14T07:25:22.823Z,358
2023-03-14T07:26:41.685Z,357
2023-03-14T07:28:44.063Z,346
2023-03-14T07:29:22.521Z,344
2023-03-14T07:30:22.630Z,355
2023-03-14T07:31:22.258Z,347
2023-03-14T07:32:22.253Z,342
2023-03-14T07:33:22.278Z,352
2023-03-14T07:34:22.076Z,358
2023-03-14T07:35:22.678Z,359
2023-03-14T07:36:22.181Z,355
2023-03-14T07:37:22.955Z,349
2023-03-14T07:38:23.072Z,345
2023-03-14T07:39:22.600Z,347
2023-03-14T07:40:22.104Z,353
2023-03-14T07:41:22.751Z,355
2023-03-14T07:42:22.093Z,348
2023-03-14T07:43:23.251Z,344
2023-03-14T07:44:22.096Z,353
2023-03-14T07:45:22.125Z,358
2023-03-14T07:46:23.075Z,342
2023-03-14T07:48:22.265Z,350
2023-03-14T07:49:22.452Z,352
2023-03-14T07:50:22.762Z,353
2023-03-14T07:51:22.314Z,359
2023-03-14T07:52:22.447Z,357
2023-03-14T07:53:21.789Z,360
2023-03-14T07:54:23.574Z,362
2023-03-14T07:55:22.297Z,357
2023-03-14T07:56:22.433Z,352
2023-03-14T07:57:22.359Z,345
2023-03-14T07:58:22.124Z,351
2023-03-14T07:59:22.912Z,356
2023-03-14T08:00:23.534Z,354
2023-03-14T08:01:23.371Z,353
2023-03-14T08:03:22.663Z,360
2023-03-14T08:04:22.225Z,350
2023-03-14T08:05:21.923Z,348
2023-03-14T08:06:22.347Z,352
2023-03-14T08:07:22.679Z,347
2023-03-14T08:08:22.485Z,341
2023-03-14T08:10:22.773Z,351
2023-03-14T08:11:22.930Z,365
2023-03-14T08:12:22.083Z,363
2023-03-14T08:13:24.385Z,360
2023-03-14T08:14:22.170Z,359
2023-03-14T08:15:22.882Z,354
2023-03-14T08:16:22.876Z,357
2023-03-14T08:17:22.662Z,356
2023-03-14T08:18:22.401Z,351
2023-03-14T08:19:22.427Z,355
2023-03-14T08:20:22.288Z,346
2023-03-14T08:21:22.987Z,339
2023-03-14T08:22:22.862Z,349
2023-03-14T08:23:23.052Z,351
2023-03-14T08:24:22.587Z,357
2023-03-14T08:25:22.765Z,358
2023-03-14T08:26:22.002Z,355
2023-03-14T08:27:22.584Z,351
2023-03-14T08:28:22.134Z,354
2023-03-14T08:29:22.499Z,350
2023-03-14T08:30:22.575Z,340
2023-03-14T08:32:22.045Z,342
2023-03-14T08:33:22.018Z,345
2023-03-14T08:34:22.831Z,357
2023-03-14T08:35:22.853Z,356
2023-03-14T08:36:24.058Z,348
2023-03-14T08:37:26.733Z,336
2023-03-14T08:38:22.339Z,341
2023-03-14T08:40:22.277Z,349
2023-03-14T08:41:22.479Z,353
2023-03-14T08:42:21.820Z,354
2023-03-14T08:43:22.032Z,351
2023-03-14T08:44:22.229Z,340
2023-03-14T08:45:22.510Z,341
2023-03-14T08:46:22.093Z,350
2023-03-14T08:48:22.119Z,345
2023-03-14T08:49:22.570Z,349
2023-03-14T08:50:22.965Z,346
2023-03-14T08:51:22.187Z,343
2023-03-14T08:52:22.737Z,354
2023-03-14T08:53:22.585Z,364
2023-03-14T08:54:22.343Z,358
2023-03-14T08:55:22.952Z,346
2023-03-14T08:56:25.506Z,342
2023-03-14T08:57:22.878Z,341
2023-03-14T08:58:21.955Z,345
2023-03-14T08:59:22.206Z,347
2023-03-14T09:00:23.301Z,352
2023-03-14T09:01:23.308Z,357
2023-03-14T09:02:22.592Z,349
2023-03-14T09:04:22.769Z,352
2023-03-14T09:05:22.828Z,359
2023-03-14T09:07:22.765Z,345
2023-03-14T09:08:22.221Z,341
2023-03-14T09:09:22.892Z,344
2023-03-14T09:10:22.618Z,341
2023-03-14T09:11:27.682Z,342
2023-03-14T09:12:22.423Z,337
2023-03-14T09:13:22.438Z,333
2023-03-14T09:14:23.092Z,350
2023-03-14T09:15:27.748Z,331
2023-03-14T09:16:22.508Z,338
2023-03-14T09:17:22.756Z,341
2023-03-14T09:18:22.151Z,345
2023-03-14T09:19:22.246Z,339
2023-03-14T09:20:22.197Z,340
2023-03-14T09:21:22.937Z,343
2023-03-14T09:23:30.423Z,345
2023-03-14T09:24:22.664Z,346
2023-03-14T09:25:22.357Z,347
2023-03-14T09:26:22.193Z,344
2023-03-14T09:27:30.533Z,352
2023-03-14T09:28:22.452Z,351
2023-03-14T09:29:22.300Z,352
2023-03-14T09:30:22.837Z,341
2023-03-14T09:31:22.927Z,343
2023-03-14T09:32:22.589Z,350
2023-03-14T09:33:23.077Z,355
2023-03-14T09:34:22.641Z,354
2023-03-14T09:35:22.787Z,349
2023-03-14T09:37:22.522Z,343
2023-03-14T09:38:22.343Z,347
2023-03-14T09:39:22.551Z,348
2023-03-14T09:40:23.029Z,343
2023-03-14T09:41:22.831Z,347
2023-03-14T09:42:22.952Z,345
2023-03-14T09:43:22.635Z,350
2023-03-14T09:44:22.495Z,351
2023-03-14T09:45:23.693Z,332
2023-03-14T09:46:22.838Z,336
2023-03-14T09:47:22.782Z,333
2023-03-14T09:49:22.833Z,340
2023-03-14T09:50:23.137Z,344
2023-03-14T09:51:23.128Z,340
2023-03-14T09:52:22.775Z,339
2023-03-14T09:53:22.707Z,343
2023-03-14T09:54:23.002Z,338
2023-03-14T09:55:22.833Z,339
2023-03-14T09:56:22.254Z,341
2023-03-14T09:57:22.720Z,349
2023-03-14T09:58:22.739Z,344
2023-03-14T09:59:22.628Z,352
2023-03-14T10:00:23.549Z,353
2023-03-14T10:01:23.349Z,347
2023-03-14T10:02:22.327Z,354
2023-03-14T10:03:22.283Z,356
2023-03-14T10:05:22.331Z,346
2023-03-14T10:06:22.327Z,347
2023-03-14T10:07:22.284Z,356
2023-03-14T10:08:22.382Z,361
2023-03-14T10:10:22.654Z,362
2023-03-14T10:11:22.579Z,360
2023-03-14T10:12:22.817Z,355
2023-03-14T10:13:22.888Z,356
2023-03-14T10:14:22.488Z,363
2023-03-14T10:15:22.578Z,366
2023-03-14T10:16:23.009Z,353
2023-03-14T10:17:22.791Z,364
2023-03-14T10:18:22.277Z,368
2023-03-14T10:19:22.827Z,359
2023-03-14T10:20:22.770Z,356
2023-03-14T10:21:22.967Z,350
2023-03-14T10:22:22.170Z,342
2023-03-14T10:23:22.367Z,351
2023-03-14T10:24:22.296Z,352
2023-03-14T10:25:23.334Z,345
2023-03-14T10:26:22.185Z,359
2023-03-14T10:27:22.428Z,362
2023-03-14T10:28:22.073Z,361
2023-03-14T10:29:22.836Z,356
2023-03-14T10:30:22.723Z,352
2023-03-14T10:31:22.926Z,354
2023-03-14T10:32:22.762Z,349
2023-03-14T10:33:22.930Z,346
2023-03-14T10:34:22.209Z,361
2023-03-14T10:35:23.008Z,358
2023-03-14T10:36:23.458Z,349
2023-03-14T10:37:22.203Z,353
2023-03-14T10:38:22.276Z,343
2023-03-14T10:39:22.241Z,341
2023-03-14T10:40:22.675Z,335
2023-03-14T10:41:22.441Z,344
2023-03-14T10:42:21.883Z,353
2023-03-14T10:44:22.093Z,350
2023-03-14T10:45:22.977Z,347
2023-03-14T10:46:22.494Z,343
2023-03-14T10:47:22.204Z,349
2023-03-14T10:48:22.607Z,356
2023-03-14T10:49:22.790Z,345
2023-03-14T10:50:23.047Z,355
2023-03-14T10:51:22.573Z,362
2023-03-14T10:52:26.347Z,356
2023-03-14T10:53:22.653Z,349
2023-03-14T10:54:23.023Z,353
2023-03-14T10:55:22.210Z,352
2023-03-14T10:56:23.487Z,359
2023-03-14T10:57:22.330Z,364
2023-03-14T10:58:23.695Z,354
2023-03-14T10:59:24.645Z,359
2023-03-14T11:00:24.700Z,361
2023-03-14T11:01:23.795Z,360
2023-03-14T11:03:23.657Z,358
2023-03-14T11:04:23.267Z,354
2023-03-14T11:05:22.971Z,365
2023-03-14T11:06:23.138Z,366
2023-03-14T11:07:22.016Z,353
2023-03-14T11:08:22.612Z,347
2023-03-14T11:09:22.413Z,350
2023-03-14T11:10:22.459Z,352
2023-03-14T11:11:22.869Z,346
2023-03-14T11:12:22.710Z,348
2023-03-14T11:13:22.893Z,344
2023-03-14T11:14:22.173Z,343
2023-03-14T11:15:22.515Z,342
2023-03-14T11:16:22.480Z,346
2023-03-14T11:17:22.206Z,343
2023-03-14T11:18:22.283Z,334
2023-03-14T11:19:22.208Z,347
2023-03-14T11:20:22.532Z,353
2023-03-14T11:21:22.800Z,361
2023-03-14T11:22:23.050Z,359
2023-03-14T11:23:23.046Z,351
2023-03-14T11:24:22.404Z,356
2023-03-14T11:25:22.911Z,354
2023-03-14T11:26:22.470Z,359
2023-03-14T11:27:22.157Z,358
2023-03-14T11:28:22.232Z,360
2023-03-14T11:29:22.458Z,361
2023-03-14T11:30:22.377Z,364
2023-03-14T11:31:22.197Z,360
2023-03-14T11:32:22.344Z,352
2023-03-14T11:33:21.600Z,357
2023-03-14T11:34:27.242Z,356
2023-03-14T11:35:22.274Z,348
2023-03-14T11:36:27.271Z,352
2023-03-14T11:37:22.707Z,360
2023-03-14T11:38:22.440Z,354
2023-03-14T11:39:23.696Z,347
2023-03-14T11:41:22.802Z,355
2023-03-14T11:42:22.074Z,348
2023-03-14T11:43:22.939Z,352
2023-03-14T11:44:22.255Z,367
2023-03-14T11:46:30.209Z,353
2023-03-14T11:47:22.341Z,342
2023-03-14T11:48:22.324Z,347
2023-03-14T11:49:22.298Z,337
2023-03-14T11:50:30.772Z,338
2023-03-14T11:51:22.017Z,352
2023-03-14T11:52:22.572Z,353
2023-03-14T11:53:22.397Z,357
2023-03-14T11:54:22.339Z,372
2023-03-14T11:55:22.152Z,371
2023-03-14T11:56:22.809Z,364
2023-03-14T11:57:22.176Z,361
2023-03-14T11:58:36.026Z,367
2023-03-14T11:59:22.134Z,364
2023-03-14T12:00:37.510Z,370
2023-03-14T12:01:23.100Z,368
2023-03-14T12:02:35.784Z,360
2023-03-14T12:03:22.424Z,355
2023-03-14T12:05:23.183Z,356
2023-03-14T12:06:22.377Z,354
2023-03-14T12:07:22.059Z,363
2023-03-14T12:08:22.736Z,359
2023-03-14T12:09:22.305Z,352
2023-03-14T12:10:22.681Z,357
2023-03-14T12:11:22.634Z,366
2023-03-14T12:12:40.772Z,361
2023-03-14T12:13:22.112Z,359
2023-03-14T12:14:23.017Z,362
2023-03-14T12:15:23.065Z,364
2023-03-14T12:16:22.668Z,356
2023-03-14T12:17:22.735Z,357
2023-03-14T12:18:22.063Z,358
2023-03-14T12:19:22.321Z,362
2023-03-14T12:21:22.537Z,351
2023-03-14T12:22:23.388Z,348
2023-03-14T12:23:22.382Z,347
2023-03-14T12:24:21.905Z,337
2023-03-14T12:26:23.137Z,344
2023-03-14T12:28:21.562Z,337
2023-03-14T12:29:22.207Z,336
2023-03-14T12:31:22.751Z,347
2023-03-14T12:32:28.072Z,349
2023-03-14T12:35:25.058Z,353
2023-03-14T12:36:24.449Z,357
2023-03-14T12:38:21.758Z,356
2023-03-14T12:39:22.095Z,348
2023-03-14T12:40:22.219Z,344
2023-03-14T12:41:22.218Z,349
2023-03-14T12:42:24.011Z,354
2023-03-14T12:43:22.429Z,360
2023-03-14T12:44:22.340Z,350
2023-03-14T12:45:22.951Z,340
2023-03-14T12:46:22.577Z,345
2023-03-14T12:47:21.827Z,356
2023-03-14T12:48:22.526Z,357
2023-03-14T12:49:22.205Z,351
2023-03-14T12:50:22.775Z,347
2023-03-14T12:51:22.393Z,365
2023-03-14T12:52:22.030Z,366
2023-03-14T12:53:21.864Z,354
2023-03-14T12:54:21.982Z,361
2023-03-14T12:56:23.003Z,363
2023-03-14T12:58:22.547Z,349
2023-03-14T12:59:22.264Z,358
2023-03-14T13:00:23.121Z,361
2023-03-14T13:01:22.803Z,352
2023-03-14T13:02:21.832Z,351
2023-03-14T13:03:22.179Z,355
2023-03-14T13:04:32.649Z,353
2023-03-14T13:05:25.541Z,354
2023-03-14T13:06:22.511Z,355
2023-03-14T13:07:22.803Z,353
2023-03-14T13:08:22.132Z,351
2023-03-14T13:09:22.002Z,353
2023-03-14T13:10:22.854Z,365
2023-03-14T13:11:22.618Z,362
2023-03-14T13:12:22.162Z,347
2023-03-14T13:13:22.662Z,343
2023-03-14T13:14:22.055Z,357
2023-03-14T13:15:23.207Z,353
2023-03-14T13:16:22.422Z,350
2023-03-14T13:17:34.445Z,345
2023-03-14T13:18:21.825Z,353
2023-03-14T13:19:22.471Z,352
2023-03-14T13:20:23.365Z,341
2023-03-14T13:21:22.081Z,345
2023-03-14T13:22:22.222Z,356
2023-03-14T13:23:22.446Z,353
2023-03-14T13:24:22.184Z,357
2023-03-14T13:25:22.677Z,358
2023-03-14T13:26:22.500Z,356
2023-03-14T13:27:22.142Z,352
2023-03-14T13:28:22.294Z,357
2023-03-14T13:29:22.123Z,358
2023-03-14T13:32:21.827Z,350
2023-03-14T13:33:22.286Z,349
2023-03-14T13:34:22.052Z,351
2023-03-14T13:35:22.557Z,339
2023-03-14T13:37:22.841Z,350
2023-03-14T13:38:22.141Z,350
2023-03-14T13:39:22.209Z,348
2023-03-14T13:40:22.761Z,340
2023-03-14T13:41:23.524Z,349
2023-03-14T13:42:22.740Z,360
2023-03-14T13:43:22.029Z,358
2023-03-14T13:44:22.764Z,363
2023-03-14T13:45:22.411Z,357
2023-03-14T13:46:22.415Z,349
2023-03-14T13:47:22.055Z,345
2023-03-14T13:48:22.495Z,353
2023-03-14T13:49:22.218Z,355
2023-03-14T13:50:22.244Z,356
2023-03-14T13:51:21.893Z,352
2023-03-14T13:52:22.737Z,350
2023-03-14T13:53:22.239Z,356
2023-03-14T13:54:22.617Z,353
2023-03-14T13:55:22.747Z,339
2023-03-14T13:56:22.390Z,343
2023-03-14T13:57:22.125Z,348
2023-03-14T13:58:22.046Z,357
2023-03-14T13:59:22.834Z,352
2023-03-14T14:00:23.654Z,343
2023-03-14T14:01:28.103Z,345
2023-03-14T14:02:22.200Z,351
2023-03-14T14:03:22.285Z,345
2023-03-14T14:04:23.298Z,348
2023-03-14T14:05:27.648Z,344
2023-03-14T14:06:22.472Z,352
2023-03-14T14:07:22.557Z,350
2023-03-14T14:09:22.872Z,349
2023-03-14T14:10:22.774Z,360
2023-03-14T14:11:26.020Z,357
2023-03-14T14:12:22.909Z,360
2023-03-14T14:14:22.876Z,358
2023-03-14T14:15:23.517Z,361
2023-03-14T14:16:21.975Z,358
2023-03-14T14:17:22.542Z,363
2023-03-14T14:18:22.526Z,361
2023-03-14T14:19:22.274Z,353
2023-03-14T14:20:22.295Z,348
2023-03-14T14:21:22.132Z,363
2023-03-14T14:22:22.624Z,359
2023-03-14T14:23:36.330Z,353
2023-03-14T14:24:22.485Z,350
2023-03-14T14:25:22.332Z,345
2023-03-14T14:26:23.309Z,346
2023-03-14T14:27:22.169Z,350
2023-03-14T14:29:21.933Z,343
2023-03-14T14:30:22.654Z,338
2023-03-14T14:31:23.100Z,344
2023-03-14T14:32:22.723Z,346
2023-03-14T14:33:41.241Z,357
2023-03-14T14:34:21.954Z,355
2023-03-14T14:35:41.235Z,352
2023-03-14T14:36:21.833Z,357
2023-03-14T14:37:22.977Z,350
2023-03-14T14:38:22.602Z,343
2023-03-14T14:39:22.761Z,351
2023-03-14T14:40:22.406Z,355
2023-03-14T14:41:21.949Z,347
2023-03-14T14:42:21.924Z,337
2023-03-14T14:43:22.427Z,351
2023-03-14T14:44:22.311Z,360
2023-03-14T14:45:21.931Z,366
2023-03-14T14:46:22.742Z,360
2023-03-14T14:47:22.369Z,365
2023-03-14T14:48:22.447Z,364
2023-03-14T14:49:22.362Z,351
2023-03-14T14:50:22.331Z,350
2023-03-14T14:51:22.376Z,352
2023-03-14T14:52:22.033Z,358
2023-03-14T14:54:22.163Z,354
2023-03-14T14:55:23.082Z,363
2023-03-14T14:56:22.700Z,358
2023-03-14T14:57:22.276Z,368
2023-03-14T14:58:22.738Z,355
2023-03-14T14:59:22.268Z,356
2023-03-14T15:00:23.140Z,355
2023-03-14T15:02:25.261Z,354
2023-03-14T15:03:22.316Z,355
2023-03-14T15:04:22.909Z,356
2023-03-14T15:05:22.914Z,361
2023-03-14T15:06:22.725Z,366
2023-03-14T15:07:22.551Z,367
2023-03-14T15:09:22.594Z,362